createdAt,value
2022-11-05T00:01:17.062Z,93367.60
2022-11-05T00:02:40.086Z,93371.65
2022-11-05T00:04:02.225Z,93370.11
2022-11-05T00:05:24.471Z,93364.09
2022-11-05T00:06:46.868Z,93365.14
2022-11-05T00:08:11.182Z,93363.81
2022-11-05T00:09:32.653Z,93364.42
2022-11-05T00:10:38.744Z,93365.73
2022-11-05T00:12:00.882Z,93362.20
2022-11-05T00:13:26.753Z,93363.70
2022-11-05T00:14:48.897Z,93361.34
2022-11-05T00:16:10.337Z,93360.80
2022-11-05T00:17:13.428Z,93362.16
2022-11-05T00:18:16.575Z,93364.97
2022-11-05T00:19:19.627Z,93363.88
2022-11-05T00:20:23.149Z,93366.45
2022-11-05T00:21:46.013Z,93368.79
2022-11-05T00:23:07.643Z,93370.80
2022-11-05T00:24:32.237Z,93374.48
2022-11-05T00:25:35.754Z,93378.67
2022-11-05T00:26:38.976Z,93375.88
2022-11-05T00:27:43.309Z,93385.34
2022-11-05T00:28:47.496Z,93388.59
2022-11-05T00:29:50.641Z,93389.09
2022-11-05T00:30:54.437Z,93393.36
2022-11-05T00:31:58.212Z,93398.54
2022-11-05T00:33:03.051Z,93392.52
2022-11-05T00:34:07.339Z,93393.73
2022-11-05T00:35:13.047Z,93385.88
2022-11-05T00:36:16.607Z,93387.77
2022-11-05T00:37:19.861Z,93386.49
2022-11-05T00:38:23.012Z,93386.91
2022-11-05T00:39:26.268Z,93390.65
2022-11-05T00:40:31.272Z,93390.23
2022-11-05T00:41:34.559Z,93389.69
2022-11-05T00:42:58.550Z,93396.55
2022-11-05T00:44:20.181Z,93395.84
2022-11-05T00:45:23.366Z,93394.41
2022-11-05T00:46:26.879Z,93394.75
2022-11-05T00:47:52.404Z,93397.05
2022-11-05T00:49:14.526Z,93399.54
2022-11-05T00:50:18.514Z,93400.45
2022-11-05T00:51:21.796Z,93405.03
2022-11-05T00:52:44.281Z,93413.30
2022-11-05T00:53:47.650Z,93419.23
2022-11-05T00:54:50.702Z,93421.52
2022-11-05T00:55:53.864Z,93420.57
2022-11-05T00:57:04.381Z,93422.90
2022-11-05T00:58:12.001Z,93421.72
2022-11-05T00:59:15.116Z,93418.55
2022-11-05T01:00:18.689Z,93424.80
2022-11-05T01:01:21.861Z,93426.11
2022-11-05T01:02:25.237Z,93426.98
2022-11-05T01:03:30.596Z,93426.23
2022-11-05T01:04:36.653Z,93431.11
2022-11-05T01:05:45.273Z,93432.62
2022-11-05T01:06:48.397Z,93431.71
2022-11-05T01:07:52.478Z,93431.88
2022-11-05T01:08:56.127Z,93431.30
2022-11-05T01:10:01.317Z,93432.21
2022-11-05T01:11:10.635Z,93433.20
2022-11-05T01:12:14.348Z,93435.90
2022-11-05T01:13:20.910Z,93438.27
2022-11-05T01:14:24.148Z,93444.79
2022-11-05T01:15:29.773Z,93443.59
2022-11-05T01:16:33.060Z,93444.23
2022-11-05T01:17:36.374Z,93444.28
2022-11-05T01:18:39.550Z,93445.17
2022-11-05T01:19:42.668Z,93445.66
2022-11-05T01:20:48.683Z,93440.10
2022-11-05T01:21:51.972Z,93433.08
2022-11-05T01:22:58.019Z,93430.84
2022-11-05T01:24:01.523Z,93423.54
2022-11-05T01:25:04.925Z,93418.29
2022-11-05T01:26:08.063Z,93413.41
2022-11-05T01:27:11.143Z,93410.27
2022-11-05T01:28:14.265Z,93405.69
2022-11-05T01:29:17.471Z,93410.86
2022-11-05T01:30:20.555Z,93410.98
2022-11-05T01:31:26.492Z,93406.17
2022-11-05T01:32:29.721Z,93406.17
2022-11-05T01:33:33.262Z,93404.73
2022-11-05T01:34:36.383Z,93405.45
2022-11-05T01:35:40.052Z,93408.54
2022-11-05T01:36:43.389Z,93405.64
2022-11-05T01:37:47.317Z,93397.82
2022-11-05T01:38:50.475Z,93398.83
2022-11-05T01:39:53.676Z,93398.13
2022-11-05T01:40:56.866Z,93396.69
2022-11-05T01:42:00.472Z,93399.00
2022-11-05T01:43:03.712Z,93403.15
2022-11-05T01:44:26.773Z,93405.30
2022-11-05T01:45:29.908Z,93411.67
2022-11-05T01:46:32.978Z,93411.99
2022-11-05T01:47:52.488Z,93411.89
2022-11-05T01:49:02.782Z,93413.25
2022-11-05T01:50:12.457Z,93415.69
2022-11-05T01:51:18.428Z,93420.27
2022-11-05T01:52:25.317Z,93420.16
2022-11-05T01:53:31.265Z,93423.44
2022-11-05T01:54:35.091Z,93417.09
2022-11-05T01:55:42.948Z,93422.46
2022-11-05T01:56:52.317Z,93421.73
2022-11-05T01:57:56.562Z,93425.50
2022-11-05T01:59:02.681Z,93427.20
2022-11-05T02:00:06.697Z,93428.37
2022-11-05T02:01:17.417Z,93433.45
2022-11-05T02:02:22.466Z,93437.45
2022-11-05T02:03:26.629Z,93440.65
2022-11-05T02:04:32.141Z,93434.37
2022-11-05T02:05:38.172Z,93439.40
2022-11-05T02:06:46.727Z,93440.98
2022-11-05T02:07:50.431Z,93442.12
2022-11-05T02:08:59.926Z,93450.16
2022-11-05T02:10:04.997Z,93452.39
2022-11-05T02:11:08.498Z,93452.66
2022-11-05T02:12:13.128Z,93452.95
2022-11-05T02:13:16.204Z,93456.00
2022-11-05T02:14:20.467Z,93457.02
2022-11-05T02:15:27.783Z,93448.25
2022-11-05T02:16:37.341Z,93458.08
2022-11-05T02:18:03.883Z,93461.33
2022-11-05T02:19:06.937Z,93461.82
2022-11-05T02:20:19.483Z,93459.88
2022-11-05T02:21:41.194Z,93463.64
2022-11-05T02:23:02.834Z,93465.58
2022-11-05T02:24:05.947Z,93467.04
2022-11-05T02:25:09.131Z,93463.43
2022-11-05T02:26:14.071Z,93465.77
2022-11-05T02:27:26.611Z,93465.33
2022-11-05T02:28:48.976Z,93467.70
2022-11-05T02:29:52.144Z,93468.92
2022-11-05T02:31:30.957Z,93466.52
2022-11-05T02:32:33.967Z,93467.40
2022-11-05T02:33:37.153Z,93464.91
2022-11-05T02:34:45.624Z,93469.75
2022-11-05T02:36:00.504Z,93467.59
2022-11-05T02:37:21.696Z,93473.67
2022-11-05T02:38:43.613Z,93475.85
2022-11-05T02:39:50.851Z,93475.54
2022-11-05T02:41:01.959Z,93485.41
2022-11-05T02:42:17.210Z,93492.38
2022-11-05T02:43:20.354Z,93492.23
2022-11-05T02:44:42.109Z,93492.11
2022-11-05T02:45:45.220Z,93488.29
2022-11-05T02:46:57.317Z,93488.21
2022-11-05T02:48:21.882Z,93493.20
2022-11-05T02:49:48.223Z,93493.67
2022-11-05T02:51:03.272Z,93494.54
2022-11-05T02:52:15.353Z,93486.42
2022-11-05T02:53:37.171Z,93484.30
2022-11-05T02:54:47.586Z,93483.73
2022-11-05T02:55:59.546Z,93484.08
2022-11-05T02:57:05.467Z,93481.67
2022-11-05T02:58:09.152Z,93481.00
2022-11-05T02:59:12.491Z,93477.64
2022-11-05T03:00:34.391Z,93473.14
2022-11-05T03:01:38.331Z,93470.18
2022-11-05T03:02:42.579Z,93471.44
2022-11-05T03:03:47.488Z,93471.21
2022-11-05T03:04:56.460Z,93467.56
2022-11-05T03:06:18.374Z,93467.73
2022-11-05T03:07:37.452Z,93465.39
2022-11-05T03:08:43.483Z,93463.38
2022-11-05T03:09:50.050Z,93468.66
2022-11-05T03:10:59.828Z,93472.66
2022-11-05T03:12:08.823Z,93471.98
2022-11-05T03:13:19.731Z,93469.97
2022-11-05T03:14:27.221Z,93468.81
2022-11-05T03:15:49.548Z,93468.32
2022-11-05T03:17:00.250Z,93473.10
2022-11-05T03:18:11.589Z,93473.06
2022-11-05T03:19:20.728Z,93472.62
2022-11-05T03:20:44.112Z,93476.23
2022-11-05T03:21:53.837Z,93474.30
2022-11-05T03:23:06.127Z,93475.71
2022-11-05T03:24:15.866Z,93479.43
2022-11-05T03:25:21.531Z,93483.00
2022-11-05T03:26:24.574Z,93484.46
2022-11-05T03:27:30.956Z,93487.68
2022-11-05T03:28:35.773Z,93485.70
2022-11-05T03:29:43.881Z,93487.39
2022-11-05T03:30:48.569Z,93486.08
2022-11-05T03:31:53.376Z,93488.39
2022-11-05T03:32:59.698Z,93485.30
2022-11-05T03:34:04.697Z,93481.05
2022-11-05T03:35:10.960Z,93483.63
2022-11-05T03:36:19.759Z,93477.05
2022-11-05T03:37:25.477Z,93479.38
2022-11-05T03:38:31.356Z,93475.48
2022-11-05T03:39:40.076Z,93477.92
2022-11-05T03:40:45.580Z,93481.55
2022-11-05T03:41:52.534Z,93482.02
2022-11-05T03:42:58.434Z,93483.88
2022-11-05T03:44:03.608Z,93484.71
2022-11-05T03:45:10.771Z,93491.40
2022-11-05T03:46:23.371Z,93489.72
2022-11-05T03:47:32.929Z,93498.89
2022-11-05T03:48:39.572Z,93500.00
2022-11-05T03:49:53.965Z,93505.63
2022-11-05T03:50:59.772Z,93510.36
2022-11-05T03:52:14.596Z,93506.17
2022-11-05T03:53:22.266Z,93507.96
2022-11-05T03:54:25.460Z,93500.61
2022-11-05T03:55:32.864Z,93499.02
2022-11-05T03:56:39.825Z,93493.60
2022-11-05T03:57:47.436Z,93490.98
2022-11-05T03:58:56.030Z,93490.36
2022-11-05T04:00:01.940Z,93494.25
2022-11-05T04:01:14.970Z,93492.78
2022-11-05T04:02:19.422Z,93496.83
2022-11-05T04:03:22.658Z,93493.70
2022-11-05T04:04:25.826Z,93493.27
2022-11-05T04:05:29.054Z,93496.94
2022-11-05T04:06:50.996Z,93492.98
2022-11-05T04:08:14.441Z,93493.38
2022-11-05T04:09:36.503Z,93491.85
2022-11-05T04:11:10.688Z,93491.76
2022-11-05T04:12:32.468Z,93493.24
2022-11-05T04:13:36.067Z,93499.59
2022-11-05T04:14:39.855Z,93505.97
2022-11-05T04:16:01.888Z,93507.45
2022-11-05T04:17:08.800Z,93507.31
2022-11-05T04:18:11.885Z,93501.32
2022-11-05T04:19:34.991Z,93502.91
2022-11-05T04:21:13.639Z,93505.50
2022-11-05T04:22:35.755Z,93503.46
2022-11-05T04:23:57.528Z,93503.70
2022-11-05T04:25:00.679Z,93500.73
2022-11-05T04:26:03.794Z,93501.31
2022-11-05T04:27:11.340Z,93499.73
2022-11-05T04:28:14.581Z,93499.38
2022-11-05T04:29:36.395Z,93500.05
2022-11-05T04:30:42.155Z,93498.98
2022-11-05T04:31:45.336Z,93495.29
2022-11-05T04:32:57.230Z,93497.20
2022-11-05T04:34:00.347Z,93490.62
2022-11-05T04:35:03.518Z,93494.45
2022-11-05T04:36:09.778Z,93493.67
2022-11-05T04:37:13.057Z,93500.27
2022-11-05T04:38:18.187Z,93507.29
2022-11-05T04:39:21.782Z,93511.23
2022-11-05T04:40:27.661Z,93509.94
2022-11-05T04:41:30.888Z,93514.41
2022-11-05T04:42:34.942Z,93515.08
2022-11-05T04:43:38.101Z,93512.70
2022-11-05T04:44:41.172Z,93512.45
2022-11-05T04:45:44.836Z,93508.60
2022-11-05T04:46:48.094Z,93509.81
2022-11-05T04:47:51.274Z,93506.97
2022-11-05T04:48:54.450Z,93505.78
2022-11-05T04:49:57.637Z,93506.06
2022-11-05T04:51:00.740Z,93506.15
2022-11-05T04:52:04.206Z,93501.42
2022-11-05T04:53:07.440Z,93503.34
2022-11-05T04:54:10.601Z,93507.54
2022-11-05T04:55:16.302Z,93514.05
2022-11-05T04:56:21.018Z,93513.08
2022-11-05T04:57:24.253Z,93513.91
2022-11-05T04:58:28.131Z,93513.80
2022-11-05T04:59:31.226Z,93513.48
2022-11-05T05:00:34.486Z,93505.89
2022-11-05T05:01:37.817Z,93508.60
2022-11-05T05:02:41.760Z,93513.14
2022-11-05T05:03:46.993Z,93511.98
2022-11-05T05:04:50.933Z,93512.98
2022-11-05T05:05:54.240Z,93497.40
2022-11-05T05:06:58.781Z,93517.19
2022-11-05T05:08:02.466Z,93520.15
2022-11-05T05:09:05.563Z,93514.84
2022-11-05T05:10:09.987Z,93517.31
2022-11-05T05:11:14.505Z,93516.47
2022-11-05T05:12:22.927Z,93516.43
2022-11-05T05:13:27.172Z,93517.70
2022-11-05T05:14:30.368Z,93521.95
2022-11-05T05:15:33.874Z,93520.07
2022-11-05T05:16:39.952Z,93525.05
2022-11-05T05:17:43.161Z,93529.36
2022-11-05T05:18:46.732Z,93529.17
2022-11-05T05:20:09.051Z,93530.20
2022-11-05T05:21:30.762Z,93540.64
2022-11-05T05:22:35.131Z,93546.36
2022-11-05T05:23:38.318Z,93545.44
2022-11-05T05:24:42.572Z,93550.09
2022-11-05T05:25:45.776Z,93556.04
2022-11-05T05:26:49.985Z,93557.64
2022-11-05T05:27:53.281Z,93556.30
2022-11-05T05:28:56.842Z,93557.54
2022-11-05T05:30:00.481Z,93562.29
2022-11-05T05:31:04.006Z,93563.85
2022-11-05T05:32:07.248Z,93568.52
2022-11-05T05:33:10.822Z,93570.28
2022-11-05T05:34:14.850Z,93572.63
2022-11-05T05:35:17.981Z,93576.41
2022-11-05T05:36:21.813Z,93576.52
2022-11-05T05:37:24.839Z,93579.46
2022-11-05T05:38:28.473Z,93577.11
2022-11-05T05:39:33.621Z,93578.45
2022-11-05T05:40:37.039Z,93575.98
2022-11-05T05:41:40.238Z,93577.94
2022-11-05T05:42:43.777Z,93576.69
2022-11-05T05:43:47.068Z,93564.70
2022-11-05T05:44:50.338Z,93588.70
2022-11-05T05:45:53.466Z,93591.09
2022-11-05T05:46:56.551Z,93595.77
2022-11-05T05:47:59.637Z,93600.59
2022-11-05T05:49:05.486Z,93598.77
2022-11-05T05:50:12.638Z,93595.05
2022-11-05T05:51:18.523Z,93599.11
2022-11-05T05:52:21.671Z,93597.65
2022-11-05T05:53:24.910Z,93596.41
2022-11-05T05:54:32.892Z,93601.55
2022-11-05T05:55:37.476Z,93605.00
2022-11-05T05:56:42.673Z,93605.27
2022-11-05T05:57:50.261Z,93610.39
2022-11-05T05:58:53.451Z,93608.91
2022-11-05T05:59:56.576Z,93610.03
2022-11-05T06:01:03.768Z,93614.52
2022-11-05T06:02:07.117Z,93610.42
2022-11-05T06:03:10.703Z,93612.54
2022-11-05T06:04:16.966Z,93611.87
2022-11-05T06:05:20.061Z,93610.75
2022-11-05T06:06:25.872Z,93609.27
2022-11-05T06:07:31.850Z,93611.20
2022-11-05T06:08:39.347Z,93616.86
2022-11-05T06:09:42.491Z,93617.73
2022-11-05T06:10:52.094Z,93618.77
2022-11-05T06:11:55.586Z,93618.06
2022-11-05T06:13:02.199Z,93619.19
2022-11-05T06:14:05.454Z,93620.38
2022-11-05T06:15:08.688Z,93618.51
2022-11-05T06:16:12.018Z,93624.39
2022-11-05T06:17:21.518Z,93627.52
2022-11-05T06:18:25.890Z,93629.94
2022-11-05T06:19:29.455Z,93632.45
2022-11-05T06:20:32.720Z,93635.52
2022-11-05T06:21:35.977Z,93637.64
2022-11-05T06:22:39.347Z,93644.22
2022-11-05T06:23:43.300Z,93641.48
2022-11-05T06:24:46.453Z,93648.70
2022-11-05T06:25:52.356Z,93650.58
2022-11-05T06:26:55.805Z,93650.69
2022-11-05T06:28:01.804Z,93652.80
2022-11-05T06:29:04.937Z,93652.27
2022-11-05T06:30:08.486Z,93655.44
2022-11-05T06:31:12.304Z,93655.44
2022-11-05T06:32:16.006Z,93654.44
2022-11-05T06:33:20.161Z,93658.06
2022-11-05T06:34:23.271Z,93660.58
2022-11-05T06:35:29.260Z,93661.23
2022-11-05T06:36:32.503Z,93656.62
2022-11-05T06:37:36.225Z,93662.34
2022-11-05T06:38:41.908Z,93664.10
2022-11-05T06:39:45.095Z,93665.21
2022-11-05T06:40:51.489Z,93665.36
2022-11-05T06:42:17.166Z,93667.66
2022-11-05T06:43:17.798Z,93670.23
2022-11-05T06:44:23.571Z,93675.20
2022-11-05T06:45:27.173Z,93678.56
2022-11-05T06:46:33.096Z,93680.45
2022-11-05T06:47:36.754Z,93678.63
2022-11-05T06:48:39.957Z,93682.64
2022-11-05T06:49:43.150Z,93679.95
2022-11-05T06:50:46.829Z,93681.87
2022-11-05T06:51:50.535Z,93676.29
2022-11-05T06:52:57.198Z,93676.36
2022-11-05T06:54:00.254Z,93671.64
2022-11-05T06:55:03.741Z,93671.08
2022-11-05T06:56:08.009Z,93671.80
2022-11-05T06:57:11.945Z,93673.55
2022-11-05T06:58:15.781Z,93672.12
2022-11-05T06:59:18.982Z,93674.20
2022-11-05T07:00:22.511Z,93671.58
2022-11-05T07:01:25.907Z,93676.41
2022-11-05T07:02:29.185Z,93679.31
2022-11-05T07:03:32.293Z,93681.98
2022-11-05T07:04:43.117Z,93680.83
2022-11-05T07:05:48.260Z,93678.05
2022-11-05T07:06:51.516Z,93681.73
2022-11-05T07:07:54.627Z,93684.93
2022-11-05T07:08:57.741Z,93684.77
2022-11-05T07:10:00.795Z,93687.11
2022-11-05T07:11:04.624Z,93691.91
2022-11-05T07:12:07.849Z,93694.52
2022-11-05T07:13:12.133Z,93699.35
2022-11-05T07:14:15.866Z,93706.33
2022-11-05T07:15:19.040Z,93707.98
2022-11-05T07:16:22.149Z,93706.85
2022-11-05T07:17:28.680Z,93708.70
2022-11-05T07:18:33.531Z,93715.66
2022-11-05T07:19:36.632Z,93716.69
2022-11-05T07:20:40.158Z,93720.52
2022-11-05T07:21:43.266Z,93719.95
2022-11-05T07:22:46.439Z,93721.92
2022-11-05T07:23:49.910Z,93723.96
2022-11-05T07:24:53.124Z,93724.87
2022-11-05T07:25:56.199Z,93726.92
2022-11-05T07:26:59.373Z,93729.66
2022-11-05T07:28:03.441Z,93733.91
2022-11-05T07:29:06.552Z,93735.09
2022-11-05T07:30:10.138Z,93734.41
2022-11-05T07:31:14.270Z,93736.45
2022-11-05T07:32:17.489Z,93738.45
2022-11-05T07:33:23.385Z,93736.54
2022-11-05T07:34:26.500Z,93738.57
2022-11-05T07:35:29.792Z,93743.25
2022-11-05T07:36:32.902Z,93745.48
2022-11-05T07:37:43.065Z,93744.35
2022-11-05T07:38:47.552Z,93744.66
2022-11-05T07:39:50.845Z,93745.89
2022-11-05T07:40:54.747Z,93748.48
2022-11-05T07:41:58.287Z,93747.54
2022-11-05T07:43:06.819Z,93747.15
2022-11-05T07:44:09.986Z,93746.41
2022-11-05T07:45:13.290Z,93745.18
2022-11-05T07:46:16.570Z,93749.19
2022-11-05T07:47:19.770Z,93746.05
2022-11-05T07:48:23.001Z,93752.36
2022-11-05T07:49:26.369Z,93744.97
2022-11-05T07:50:31.493Z,93750.52
2022-11-05T07:51:34.817Z,93748.93
2022-11-05T07:52:38.394Z,93746.80
2022-11-05T07:53:46.331Z,93750.06
2022-11-05T07:54:49.850Z,93749.49
2022-11-05T07:55:53.116Z,93754.24
2022-11-05T07:56:56.256Z,93753.27
2022-11-05T07:57:59.353Z,93755.08
2022-11-05T07:59:02.746Z,93758.67
2022-11-05T08:00:06.421Z,93762.50
2022-11-05T08:01:15.579Z,93760.37
2022-11-05T08:02:19.233Z,93762.15
2022-11-05T08:03:22.628Z,93764.65
2022-11-05T08:04:25.979Z,93760.91
2022-11-05T08:05:30.240Z,93761.16
2022-11-05T08:06:33.392Z,93763.58
2022-11-05T08:07:36.686Z,93766.03
2022-11-05T08:08:40.258Z,93770.31
2022-11-05T08:09:43.421Z,93768.02
2022-11-05T08:10:46.826Z,93767.69
2022-11-05T08:11:53.290Z,93768.09
2022-11-05T08:12:59.350Z,93770.94
2022-11-05T08:14:02.438Z,93770.59
2022-11-05T08:15:15.214Z,93773.22
2022-11-05T08:16:18.880Z,93778.89
2022-11-05T08:17:22.469Z,93777.67
2022-11-05T08:18:31.965Z,93778.50
2022-11-05T08:19:35.105Z,93778.58
2022-11-05T08:20:38.737Z,93780.05
2022-11-05T08:21:41.920Z,93777.59
2022-11-05T08:22:45.763Z,93776.94
2022-11-05T08:23:49.071Z,93777.89
2022-11-05T08:24:54.550Z,93780.41
2022-11-05T08:25:58.185Z,93778.61
2022-11-05T08:27:04.036Z,93774.85
2022-11-05T08:28:08.862Z,93780.28
2022-11-05T08:29:12.156Z,93779.42
2022-11-05T08:30:16.433Z,93778.63
2022-11-05T08:31:19.741Z,93774.64
2022-11-05T08:32:23.104Z,93769.81
2022-11-05T08:33:29.895Z,93774.21
2022-11-05T08:34:33.009Z,93771.02
2022-11-05T08:35:37.221Z,93771.66
2022-11-05T08:36:42.240Z,93775.20
2022-11-05T08:37:45.453Z,93777.45
2022-11-05T08:38:51.819Z,93778.92
2022-11-05T08:39:55.187Z,93780.11
2022-11-05T08:40:58.724Z,93780.53
2022-11-05T08:42:02.009Z,93783.55
2022-11-05T08:43:07.001Z,93781.23
2022-11-05T08:44:10.286Z,93782.95
2022-11-05T08:45:13.415Z,93781.03
2022-11-05T08:46:16.713Z,93777.76
2022-11-05T08:47:19.932Z,93780.02
2022-11-05T08:48:23.139Z,93781.46
2022-11-05T08:49:26.291Z,93776.89
2022-11-05T08:50:29.890Z,93776.23
2022-11-05T08:51:33.036Z,93771.29
2022-11-05T08:52:41.963Z,93770.77
2022-11-05T08:53:45.338Z,93772.60
2022-11-05T08:54:48.633Z,93767.45
2022-11-05T08:55:53.053Z,93772.52
2022-11-05T08:56:56.210Z,93772.00
2022-11-05T08:58:00.656Z,93772.98
2022-11-05T08:59:04.020Z,93769.38
2022-11-05T09:00:07.732Z,93771.76
2022-11-05T09:01:10.997Z,93770.71
2022-11-05T09:02:14.374Z,93769.51
2022-11-05T09:03:17.574Z,93764.65
2022-11-05T09:04:23.129Z,93767.41
2022-11-05T09:05:26.338Z,93763.31
2022-11-05T09:06:29.498Z,93765.77
2022-11-05T09:07:33.011Z,93769.04
2022-11-05T09:08:38.356Z,93766.38
2022-11-05T09:09:41.936Z,93764.36
2022-11-05T09:10:45.975Z,93765.14
2022-11-05T09:12:11.087Z,93765.33
2022-11-05T09:13:18.302Z,93771.76
2022-11-05T09:14:22.396Z,93770.31
2022-11-05T09:15:25.711Z,93767.29
2022-11-05T09:16:34.491Z,93770.00
2022-11-05T09:17:37.876Z,93769.44
2022-11-05T09:18:44.020Z,93771.51
2022-11-05T09:19:50.197Z,93774.77
2022-11-05T09:20:53.397Z,93772.16
2022-11-05T09:21:58.231Z,93774.98
2022-11-05T09:23:01.799Z,93772.73
2022-11-05T09:24:05.066Z,93772.81
2022-11-05T09:25:08.484Z,93774.67
2022-11-05T09:26:12.206Z,93768.04
2022-11-05T09:27:15.543Z,93766.77
2022-11-05T09:28:20.665Z,93765.62
2022-11-05T09:29:23.768Z,93764.16
2022-11-05T09:30:28.116Z,93765.90
2022-11-05T09:31:31.209Z,93767.29
2022-11-05T09:32:35.765Z,93765.27
2022-11-05T09:33:40.115Z,93769.80
2022-11-05T09:34:45.102Z,93772.11
2022-11-05T09:35:48.601Z,93771.89
2022-11-05T09:36:51.785Z,93775.63
2022-11-05T09:38:00.787Z,93777.55
2022-11-05T09:39:04.458Z,93777.98
2022-11-05T09:40:07.853Z,93776.23
2022-11-05T09:41:11.005Z,93782.00
2022-11-05T09:42:17.656Z,93782.98
2022-11-05T09:43:26.080Z,93785.91
2022-11-05T09:44:38.607Z,93788.55
2022-11-05T09:45:41.764Z,93786.07
2022-11-05T09:46:50.368Z,93792.67
2022-11-05T09:47:55.838Z,93797.20
2022-11-05T09:49:07.020Z,93796.06
2022-11-05T09:50:15.428Z,93801.39
2022-11-05T09:51:24.066Z,93798.80
2022-11-05T09:52:28.895Z,93802.92
2022-11-05T09:53:32.233Z,93805.61
2022-11-05T09:54:35.442Z,93793.05
2022-11-05T09:55:43.715Z,93802.39
2022-11-05T09:56:46.860Z,93796.74
2022-11-05T09:57:54.995Z,93797.12
2022-11-05T09:59:14.564Z,93795.63
2022-11-05T10:00:18.191Z,93796.87
2022-11-05T10:01:31.209Z,93798.38
2022-11-05T10:02:38.211Z,93795.17
2022-11-05T10:03:47.225Z,93797.22
2022-11-05T10:04:53.165Z,93798.60
2022-11-05T10:06:00.723Z,93799.39
2022-11-05T10:07:04.809Z,93801.50
2022-11-05T10:08:13.479Z,93801.83
2022-11-05T10:09:28.389Z,93807.73
2022-11-05T10:10:40.888Z,93809.20
2022-11-05T10:11:46.921Z,93806.89
2022-11-05T10:12:52.879Z,93808.85
2022-11-05T10:14:02.505Z,93812.39
2022-11-05T10:15:15.755Z,93809.17
2022-11-05T10:16:21.659Z,93808.02
2022-11-05T10:17:26.492Z,93807.55
2022-11-05T10:18:34.794Z,93809.09
2022-11-05T10:19:46.293Z,93806.72
2022-11-05T10:20:49.991Z,93806.23
2022-11-05T10:22:14.040Z,93809.41
2022-11-05T10:23:18.934Z,93809.40
2022-11-05T10:24:22.159Z,93808.78
2022-11-05T10:25:27.935Z,93808.09
2022-11-05T10:26:33.869Z,93807.98
2022-11-05T10:27:37.878Z,93807.97
2022-11-05T10:28:41.385Z,93809.40
2022-11-05T10:29:45.495Z,93808.67
2022-11-05T10:30:51.802Z,93806.71
2022-11-05T10:31:57.765Z,93803.49
2022-11-05T10:33:04.057Z,93809.52
2022-11-05T10:34:08.659Z,93806.77
2022-11-05T10:35:19.250Z,93805.14
2022-11-05T10:36:35.294Z,93805.34
2022-11-05T10:37:41.052Z,93807.77
2022-11-05T10:38:44.486Z,93810.81
2022-11-05T10:39:48.960Z,93810.42
2022-11-05T10:41:04.875Z,93808.63
2022-11-05T10:42:16.048Z,93813.98
2022-11-05T10:43:24.226Z,93813.06
2022-11-05T10:44:30.321Z,93812.16
2022-11-05T10:45:39.490Z,93816.46
2022-11-05T10:46:48.629Z,93810.52
2022-11-05T10:48:01.073Z,93812.89
2022-11-05T10:49:14.851Z,93813.36
2022-11-05T10:50:24.090Z,93814.58
2022-11-05T10:51:27.810Z,93819.59
2022-11-05T10:52:39.660Z,93818.69
2022-11-05T10:53:50.393Z,93816.15
2022-11-05T10:54:56.135Z,93822.11
2022-11-05T10:55:59.576Z,93821.08
2022-11-05T10:57:22.901Z,93815.20
2022-11-05T10:58:29.161Z,93813.63
2022-11-05T10:59:32.281Z,93812.95
2022-11-05T11:00:37.147Z,93812.05
2022-11-05T11:01:40.979Z,93814.38
2022-11-05T11:02:46.876Z,93810.36
2022-11-05T11:04:03.769Z,93813.85
2022-11-05T11:05:08.997Z,93813.38
2022-11-05T11:06:26.009Z,93810.67
2022-11-05T11:07:29.308Z,93815.23
2022-11-05T11:08:35.835Z,93815.17
2022-11-05T11:09:40.503Z,93813.54
2022-11-05T11:10:51.941Z,93815.80
2022-11-05T11:12:15.432Z,93817.06
2022-11-05T11:13:24.055Z,93812.30
2022-11-05T11:14:27.724Z,93812.63
2022-11-05T11:15:35.260Z,93810.84
2022-11-05T11:16:40.333Z,93809.25
2022-11-05T11:17:43.818Z,93809.90
2022-11-05T11:18:47.177Z,93809.05
2022-11-05T11:19:51.540Z,93809.31
2022-11-05T11:21:04.560Z,93802.44
2022-11-05T11:22:12.603Z,93808.63
2022-11-05T11:23:16.806Z,93811.20
2022-11-05T11:24:21.436Z,93814.89
2022-11-05T11:25:26.719Z,93817.20
2022-11-05T11:26:32.487Z,93818.39
2022-11-05T11:27:37.892Z,93816.79
2022-11-05T11:28:45.862Z,93819.64
2022-11-05T11:29:51.239Z,93818.84
2022-11-05T11:31:14.263Z,93819.24
2022-11-05T11:32:22.256Z,93817.29
2022-11-05T11:33:28.263Z,93820.45
2022-11-05T11:34:34.168Z,93819.84
2022-11-05T11:35:45.942Z,93817.52
2022-11-05T11:36:50.743Z,93813.69
2022-11-05T11:37:55.604Z,93814.48
2022-11-05T11:39:00.238Z,93816.35
2022-11-05T11:40:14.286Z,93819.55
2022-11-05T11:41:28.146Z,93820.52
2022-11-05T11:42:33.074Z,93824.02
2022-11-05T11:43:39.134Z,93828.67
2022-11-05T11:44:44.907Z,93828.16
2022-11-05T11:45:53.198Z,93823.90
2022-11-05T11:47:02.656Z,93824.52
2022-11-05T11:48:06.792Z,93822.95
2022-11-05T11:49:29.896Z,93821.60
2022-11-05T11:50:38.000Z,93819.75
2022-11-05T11:51:49.519Z,93819.98
2022-11-05T11:52:53.678Z,93825.30
2022-11-05T11:53:58.763Z,93827.69
2022-11-05T11:55:08.291Z,93825.84
2022-11-05T11:56:15.985Z,93828.21
2022-11-05T11:57:21.925Z,93831.96
2022-11-05T11:58:36.178Z,93828.98
2022-11-05T12:00:07.360Z,93831.95
2022-11-05T12:01:07.070Z,93836.58
2022-11-05T12:02:22.228Z,93836.20
2022-11-05T12:03:31.926Z,93835.88
2022-11-05T12:05:04.729Z,93834.19
2022-11-05T12:06:16.833Z,93834.61
2022-11-05T12:07:32.882Z,93838.67
2022-11-05T12:08:45.259Z,93834.28
2022-11-05T12:09:54.672Z,93835.86
2022-11-05T12:11:11.337Z,93834.44
2022-11-05T12:12:15.687Z,93832.81
2022-11-05T12:13:18.776Z,93832.39
2022-11-05T12:14:32.652Z,93831.64
2022-11-05T12:15:55.162Z,93834.42
2022-11-05T12:17:01.342Z,93834.95
2022-11-05T12:18:19.733Z,93835.58
2022-11-05T12:19:41.581Z,93838.37
2022-11-05T12:20:48.484Z,93843.41
2022-11-05T12:21:53.544Z,93845.87
2022-11-05T12:22:56.831Z,93849.30
2022-11-05T12:23:59.883Z,93849.66
2022-11-05T12:25:15.770Z,93850.23
2022-11-05T12:26:30.989Z,93843.89
2022-11-05T12:27:36.802Z,93851.97
2022-11-05T12:29:17.262Z,93855.52
2022-11-05T12:30:19.079Z,93857.60
2022-11-05T12:32:00.859Z,93860.85
2022-11-05T12:33:07.289Z,93860.81
2022-11-05T12:34:19.445Z,93861.63
2022-11-05T12:35:25.427Z,93867.34
2022-11-05T12:36:39.718Z,93864.76
2022-11-05T12:37:48.848Z,93874.17
2022-11-05T12:38:52.358Z,93874.34
2022-11-05T12:40:14.235Z,93877.59
2022-11-05T12:41:18.862Z,93880.16
2022-11-05T12:42:40.755Z,93874.86
2022-11-05T12:43:44.130Z,93875.10
2022-11-05T12:44:47.790Z,93879.05
2022-11-05T12:45:53.875Z,93882.02
2022-11-05T12:46:57.073Z,93887.83
2022-11-05T12:48:03.310Z,93885.69
2022-11-05T12:49:32.796Z,93879.69
2022-11-05T12:50:38.702Z,93873.38
2022-11-05T12:51:52.290Z,93875.81
2022-11-05T12:52:56.050Z,93878.87
2022-11-05T12:54:17.213Z,93879.46
2022-11-05T12:55:25.042Z,93879.81
2022-11-05T12:56:28.160Z,93877.05
2022-11-05T12:57:33.353Z,93872.54
2022-11-05T12:58:49.173Z,93871.67
2022-11-05T13:00:02.510Z,93874.33
2022-11-05T13:01:11.008Z,93865.88
2022-11-05T13:02:20.984Z,93872.50
2022-11-05T13:03:26.977Z,93869.97
2022-11-05T13:04:37.897Z,93868.09
2022-11-05T13:05:47.848Z,93872.13
2022-11-05T13:06:53.683Z,93869.58
2022-11-05T13:07:59.864Z,93872.98
2022-11-05T13:09:08.120Z,93874.74
2022-11-05T13:10:20.909Z,93875.00
2022-11-05T13:11:28.295Z,93875.56